Wind From: 13-12-2017 10:08 Until: 14-12-2017 06:00 warning for: Wind Level: Yellow info button

Although rather usual in this region, locally or potentially dangerous phenomena are expected. (such as local winds, summer thunderstorms, rising streams or high waves) Be aware and pay attention to the latest weather updates, especially if you carry out activities exposed to weather or close to a stream or shoreline. 


Meteo18 Weather Cam more information Meteo18 Weather Cam


Thunder radar more information blitzortung!


Rain radar more information rain snow radar


Visit our other weather sites:

Template documentation
and downloads

And another site



Weather Underground History page Text

Daily Summary for August 13, 2016 Units:  Metric    English   Both
« Previous Day
Next Day »
Daily Weekly Monthly Yearly Custom
  High: Low: Average:
Temperature: 31.9 °C 13.9 °C 23.3 °C
Dew Point: 15.4 °C 12.2 °C 14 °C
Humidity: 90 % 33 % 60 %
Wind Speed: 9.7 km/h 0.0 km/h 1.7 km/h
Wind Gust: 16.1 km/h - -
Wind:- - SSE
Pressure: 1024.6 hPa 1020.5 hPa -
Precipitation: 0.0 mm    
Historical Graphs
 
 
Tabular Data for August 13, 2016
Time Temperature Dew Point Pressure Wind Wind Speed Wind Gust Humidity Rainfall Rate (Hourly)
00:02 19.1 °C 14.1 °C 1024.3 hPa Calm     73 % 0.0 mm
00:12 18.7 °C 14.2 °C 1024.3 hPa Calm     75 % 0.0 mm
00:17 18.5 °C 14.2 °C 1024.6 hPa Calm     76 % 0.0 mm
00:22 18.4 °C 13.9 °C 1024.6 hPa Calm     75 % 0.0 mm
00:32 17.8 °C 13.5 °C 1024.6 hPa Calm     76 % 0.0 mm
00:37 17.5 °C 13.6 °C 1024.3 hPa Calm     78 % 0.0 mm
00:42 17.4 °C 13.7 °C 1024.6 hPa Calm     79 % 0.0 mm
00:47 17.3 °C 13.8 °C 1024.3 hPa Calm     80 % 0.0 mm
00:52 17.2 °C 13.5 °C 1024.3 hPa Calm     79 % 0.0 mm
00:57 17.2 °C 13.7 °C 1024.3 hPa Calm     80 % 0.0 mm
01:02 17.6 °C 13.9 °C 1024.3 hPa Calm     79 % 0.0 mm
01:07 17.9 °C 14.2 °C 1024.3 hPa Calm     79 % 0.0 mm
01:12 18.0 °C 14.1 °C 1024.3 hPa Calm     78 % 0.0 mm
01:17 17.8 °C 13.9 °C 1024.3 hPa Calm     78 % 0.0 mm
01:22 17.7 °C 14.0 °C 1024.3 hPa Calm     79 % 0.0 mm
01:27 17.6 °C 13.9 °C 1024.3 hPa Calm     79 % 0.0 mm
01:37 17.3 °C 13.8 °C 1024.3 hPa Calm     80 % 0.0 mm
01:42 17.3 °C 13.8 °C 1024.3 hPa Calm     80 % 0.0 mm
01:52 17.1 °C 13.8 °C 1024.3 hPa Calm     81 % 0.0 mm
02:02 17.0 °C 13.9 °C 1024.3 hPa Calm     82 % 0.0 mm
02:07 16.9 °C 13.8 °C 1023.9 hPa Calm     82 % 0.0 mm
02:12 16.7 °C 13.6 °C 1023.9 hPa Calm     82 % 0.0 mm
02:17 16.5 °C 13.6 °C 1023.9 hPa Calm     83 % 0.0 mm
02:27 16.4 °C 13.7 °C 1023.9 hPa Calm     84 % 0.0 mm
02:32 16.4 °C 13.7 °C 1023.9 hPa Calm     84 % 0.0 mm
02:42 16.4 °C 13.7 °C 1023.9 hPa Calm     84 % 0.0 mm
02:47 16.4 °C 13.5 °C 1023.9 hPa Calm     83 % 0.0 mm
02:52 16.3 °C 13.4 °C 1023.9 hPa Calm     83 % 0.0 mm
02:57 16.4 °C 13.7 °C 1023.9 hPa Calm     84 % 0.0 mm
03:02 16.7 °C 13.8 °C 1023.9 hPa Calm     83 % 0.0 mm
03:12 16.5 °C 13.4 °C 1023.9 hPa Calm     82 % 0.0 mm
03:22 16.1 °C 13.6 °C 1023.9 hPa Calm     85 % 0.0 mm
03:32 16.1 °C 13.6 °C 1023.6 hPa Calm     85 % 0.0 mm
03:42 16.0 °C 13.5 °C 1023.6 hPa Calm     85 % 0.0 mm
03:47 15.8 °C 13.3 °C 1023.6 hPa Calm     85 % 0.0 mm
03:52 15.8 °C 13.3 °C 1023.6 hPa Calm     85 % 0.0 mm
03:57 15.8 °C 13.5 °C 1023.6 hPa Calm     86 % 0.0 mm
04:02 15.8 °C 13.5 °C 1023.6 hPa Calm     86 % 0.0 mm
04:12 15.7 °C 13.4 °C 1023.6 hPa Calm     86 % 0.0 mm
04:22 15.6 °C 13.3 °C 1023.6 hPa Calm     86 % 0.0 mm
04:27 15.5 °C 13.3 °C 1023.6 hPa Calm     87 % 0.0 mm
04:32 15.6 °C 13.3 °C 1023.2 hPa Calm     86 % 0.0 mm
04:42 15.3 °C 13.1 °C 1023.2 hPa Calm     87 % 0.0 mm
04:47 15.1 °C 13.0 °C 1023.2 hPa Calm     87 % 0.0 mm
04:52 15.3 °C 13.3 °C 1023.2 hPa Calm     88 % 0.0 mm
04:57 15.3 °C 13.1 °C 1023.6 hPa Calm     87 % 0.0 mm
05:02 15.3 °C 13.1 °C 1023.6 hPa Calm     87 % 0.0 mm
05:07 15.3 °C 13.1 °C 1023.2 hPa Calm     87 % 0.0 mm
05:12 15.2 °C 13.2 °C 1023.2 hPa Calm     88 % 0.0 mm
05:22 15.3 °C 13.3 °C 1023.2 hPa Calm     88 % 0.0 mm
05:32 15.3 °C 13.0 °C 1023.2 hPa Calm     86 % 0.0 mm
05:42 15.2 °C 13.4 °C 1023.2 hPa Calm     89 % 0.0 mm
05:57 15.0 °C 13.0 °C 1023.2 hPa Calm     88 % 0.0 mm
06:02 14.9 °C 12.9 °C 1023.2 hPa Calm     88 % 0.0 mm
06:12 14.8 °C 13.0 °C 1023.2 hPa Calm     89 % 0.0 mm
06:17 14.7 °C 12.9 °C 1023.2 hPa Calm     89 % 0.0 mm
06:32 14.3 °C 12.5 °C 1023.2 hPa Calm     89 % 0.0 mm
06:42 14.2 °C 12.4 °C 1023.2 hPa Calm     89 % 0.0 mm
06:47 14.0 °C 12.2 °C 1023.6 hPa Calm     89 % 0.0 mm
06:52 14.0 °C 12.4 °C 1023.6 hPa Calm     90 % 0.0 mm
07:02 13.9 °C 12.3 °C 1023.6 hPa Calm     90 % 0.0 mm
07:07 14.1 °C 12.5 °C 1023.6 hPa Calm     90 % 0.0 mm
07:12 14.2 °C 12.6 °C 1023.6 hPa Calm     90 % 0.0 mm
07:17 14.6 °C 13.0 °C 1023.6 hPa Calm     90 % 0.0 mm
07:22 15.1 °C 13.5 °C 1023.6 hPa Calm     90 % 0.0 mm
07:32 16.0 °C 13.7 °C 1023.6 hPa Calm     86 % 0.0 mm
07:42 17.2 °C 14.3 °C 1023.6 hPa Calm     83 % 0.0 mm
07:47 17.5 °C 13.8 °C 1023.6 hPa Calm     79 % 0.0 mm
07:52 17.7 °C 14.0 °C 1023.6 hPa Calm     79 % 0.0 mm
07:57 17.5 °C 14.0 °C 1023.6 hPa Calm     80 % 0.0 mm
08:02 18.2 °C 14.7 °C 1023.6 hPa Calm     80 % 0.0 mm
08:07 19.2 °C 14.9 °C 1023.6 hPa Calm     76 % 0.0 mm
08:12 19.9 °C 14.9 °C 1023.6 hPa Calm     73 % 0.0 mm
08:17 20.5 °C 15.1 °C 1023.6 hPa Calm     71 % 0.0 mm
08:22 21.0 °C 15.3 °C 1023.6 hPa Calm     70 % 0.0 mm
08:27 21.3 °C 15.2 °C 1023.6 hPa Calm     68 % 0.0 mm
08:32 21.4 °C 15.2 °C 1023.6 hPa Calm     68 % 0.0 mm
08:37 21.7 °C 15.3 °C 1023.9 hPa Calm     67 % 0.0 mm
08:42 21.4 °C 15.0 °C 1023.9 hPa Calm     67 % 0.0 mm
08:52 21.1 °C 14.7 °C 1023.9 hPa Calm     67 % 0.0 mm
08:57 21.3 °C 14.7 °C 1023.9 hPa Calm     66 % 0.0 mm
09:02 21.4 °C 14.5 °C 1023.9 hPa Calm     65 % 0.0 mm
09:12 21.1 °C 14.5 °C 1023.9 hPa Calm   4.8 km/h 66 % 0.0 mm
09:17 21.2 °C 14.6 °C 1023.9 hPa Calm   4.8 km/h 66 % 0.0 mm
09:22 21.4 °C 14.8 °C 1023.9 hPa SSE 1.6 km/h 4.8 km/h 66 % 0.0 mm
09:27 21.8 °C 14.9 °C 1023.9 hPa Calm   3.2 km/h 65 % 0.0 mm
09:32 22.1 °C 14.7 °C 1023.9 hPa Calm   3.2 km/h 63 % 0.0 mm
09:37 22.1 °C 14.7 °C 1023.9 hPa ESE 4.8 km/h 4.8 km/h 63 % 0.0 mm
09:42 21.9 °C 14.8 °C 1023.9 hPa Calm   3.2 km/h 64 % 0.0 mm
09:47 22.1 °C 15.0 °C 1023.9 hPa Calm   4.8 km/h 64 % 0.0 mm
09:57 22.9 °C 15.2 °C 1023.9 hPa Calm   3.2 km/h 62 % 0.0 mm
10:02 23.3 °C 15.4 °C 1023.9 hPa Calm   3.2 km/h 61 % 0.0 mm
10:12 23.6 °C 15.1 °C 1023.9 hPa Calm   3.2 km/h 59 % 0.0 mm
10:17 23.9 °C 15.4 °C 1023.9 hPa SE 1.6 km/h 3.2 km/h 59 % 0.0 mm
10:22 24.1 °C 15.3 °C 1023.9 hPa Calm   3.2 km/h 58 % 0.0 mm
10:32 24.4 °C 15.3 °C 1023.9 hPa Calm   4.8 km/h 57 % 0.0 mm
10:37 24.6 °C 15.2 °C 1023.9 hPa Calm   4.8 km/h 56 % 0.0 mm
10:42 24.9 °C 15.2 °C 1023.9 hPa ESE 3.2 km/h 4.8 km/h 55 % 0.0 mm
10:47 24.8 °C 15.1 °C 1023.6 hPa Calm   6.4 km/h 55 % 0.0 mm
10:52 25.3 °C 15.3 °C 1023.6 hPa ESE 3.2 km/h 6.4 km/h 54 % 0.0 mm
10:57 25.4 °C 14.8 °C 1023.6 hPa SE 1.6 km/h 6.4 km/h 52 % 0.0 mm
11:02 25.5 °C 15.2 °C 1023.6 hPa Calm   4.8 km/h 53 % 0.0 mm
11:12 25.8 °C 15.2 °C 1023.6 hPa ESE 3.2 km/h 6.4 km/h 52 % 0.0 mm
11:22 26.2 °C 15.0 °C 1023.6 hPa WSW 4.8 km/h 8.0 km/h 50 % 0.0 mm
11:32 26.3 °C 14.7 °C 1023.6 hPa SSW 3.2 km/h 8.0 km/h 49 % 0.0 mm
11:37 26.2 °C 15.0 °C 1023.6 hPa ENE 9.7 km/h 11.3 km/h 50 % 0.0 mm
11:42 26.1 °C 14.9 °C 1023.6 hPa SSE 1.6 km/h 11.3 km/h 50 % 0.0 mm
11:47 26.3 °C 14.7 °C 1023.6 hPa ENE 6.4 km/h 11.3 km/h 49 % 0.0 mm
11:52 26.4 °C 15.1 °C 1023.6 hPa ENE 1.6 km/h 11.3 km/h 50 % 0.0 mm
11:57 26.6 °C 15.0 °C 1023.6 hPa Calm   9.7 km/h 49 % 0.0 mm
12:02 26.8 °C 15.2 °C 1023.6 hPa East 4.8 km/h 8.0 km/h 49 % 0.0 mm
12:12 27.0 °C 15.1 °C 1023.2 hPa Calm   8.0 km/h 48 % 0.0 mm
12:17 27.0 °C 14.7 °C 1023.2 hPa NE 4.8 km/h 8.0 km/h 47 % 0.0 mm
12:22 26.8 °C 15.2 °C 1023.2 hPa Calm   9.7 km/h 49 % 0.0 mm
12:32 26.9 °C 15.0 °C 1023.2 hPa SSW 3.2 km/h 16.1 km/h 48 % 0.0 mm
12:37 26.9 °C 14.6 °C 1023.2 hPa SW 3.2 km/h 16.1 km/h 47 % 0.0 mm
12:42 27.3 °C 14.3 °C 1023.2 hPa ENE 8.0 km/h 8.0 km/h 45 % 0.0 mm
12:52 27.1 °C 14.5 °C 1023.2 hPa SE 1.6 km/h 9.7 km/h 46 % 0.0 mm
12:57 27.1 °C 14.8 °C 1022.9 hPa Calm   9.7 km/h 47 % 0.0 mm
13:02 27.1 °C 14.5 °C 1022.9 hPa Calm   9.7 km/h 46 % 0.0 mm
13:12 27.5 °C 14.5 °C 1022.9 hPa SW 1.6 km/h 11.3 km/h 45 % 0.0 mm
13:17 27.4 °C 14.8 °C 1022.9 hPa SE 1.6 km/h 11.3 km/h 46 % 0.0 mm
13:22 27.6 °C 14.9 °C 1022.9 hPa SSW 6.4 km/h 11.3 km/h 46 % 0.0 mm
13:27 27.7 °C 14.7 °C 1022.9 hPa West 4.8 km/h 9.7 km/h 45 % 0.0 mm
13:32 27.9 °C 14.9 °C 1022.6 hPa SSE 4.8 km/h 8.0 km/h 45 % 0.0 mm
13:37 28.2 °C 14.4 °C 1022.6 hPa South 3.2 km/h 9.7 km/h 43 % 0.0 mm
13:42 28.2 °C 14.8 °C 1022.6 hPa SW 3.2 km/h 12.9 km/h 44 % 0.0 mm
13:47 28.1 °C 14.7 °C 1022.6 hPa Calm   12.9 km/h 44 % 0.0 mm
13:52 28.3 °C 15.2 °C 1022.6 hPa ENE 1.6 km/h 12.9 km/h 45 % 0.0 mm
13:57 28.3 °C 14.5 °C 1022.6 hPa ENE 9.7 km/h 12.9 km/h 43 % 0.0 mm
14:02 28.3 °C 14.9 °C 1022.6 hPa NE 9.7 km/h 12.9 km/h 44 % 0.0 mm
14:12 28.5 °C 14.7 °C 1022.6 hPa Calm   14.5 km/h 43 % 0.0 mm
14:17 28.9 °C 15.1 °C 1022.6 hPa NE 6.4 km/h 14.5 km/h 43 % 0.0 mm
14:22 28.8 °C 14.6 °C 1022.6 hPa ENE 8.0 km/h 12.9 km/h 42 % 0.0 mm
14:32 28.4 °C 14.6 °C 1022.6 hPa ENE 6.4 km/h 14.5 km/h 43 % 0.0 mm
14:37 28.4 °C 14.2 °C 1022.2 hPa SW 3.2 km/h 14.5 km/h 42 % 0.0 mm
14:42 28.7 °C 14.9 °C 1022.2 hPa East 1.6 km/h 14.5 km/h 43 % 0.0 mm
14:47 29.4 °C 15.1 °C 1022.2 hPa South 3.2 km/h 12.9 km/h 42 % 0.0 mm
14:52 29.8 °C 14.7 °C 1022.2 hPa SW 4.8 km/h 11.3 km/h 40 % 0.0 mm
14:57 29.7 °C 14.3 °C 1022.2 hPa SW 4.8 km/h 12.9 km/h 39 % 0.0 mm
15:02 29.4 °C 14.4 °C 1022.2 hPa SSW 9.7 km/h 12.9 km/h 40 % 0.0 mm
15:12 29.3 °C 13.9 °C 1022.2 hPa East 4.8 km/h 12.9 km/h 39 % 0.0 mm
15:17 29.3 °C 13.9 °C 1022.2 hPa WNW 3.2 km/h 12.9 km/h 39 % 0.0 mm
15:22 29.8 °C 14.4 °C 1021.9 hPa SW 1.6 km/h 12.9 km/h 39 % 0.0 mm
15:32 29.7 °C 13.9 °C 1021.9 hPa Calm   9.7 km/h 38 % 0.0 mm
15:42 30.2 °C 13.5 °C 1021.9 hPa Calm   9.7 km/h 36 % 0.0 mm
15:52 29.5 °C 13.7 °C 1021.6 hPa ENE 9.7 km/h 12.9 km/h 38 % 0.0 mm
15:57 29.2 °C 13.8 °C 1021.6 hPa ENE 4.8 km/h 14.5 km/h 39 % 0.0 mm
16:02 29.3 °C 13.5 °C 1021.6 hPa East 3.2 km/h 14.5 km/h 38 % 0.0 mm
16:12 29.5 °C 13.7 °C 1021.6 hPa SSW 4.8 km/h 14.5 km/h 38 % 0.0 mm
16:17 29.5 °C 13.3 °C 1021.6 hPa SW 4.8 km/h 8.0 km/h 37 % 0.0 mm
16:22 29.3 °C 13.1 °C 1021.6 hPa SW 1.6 km/h 9.7 km/h 37 % 0.0 mm
16:32 30.0 °C 13.3 °C 1021.6 hPa NNE 1.6 km/h 11.3 km/h 36 % 0.0 mm
16:42 29.8 °C 13.5 °C 1021.6 hPa ENE 1.6 km/h 12.9 km/h 37 % 0.0 mm
16:52 29.9 °C 13.2 °C 1021.2 hPa ESE 3.2 km/h 11.3 km/h 36 % 0.0 mm
17:02 30.0 °C 13.3 °C 1021.2 hPa East 3.2 km/h 9.7 km/h 36 % 0.0 mm
17:12 30.1 °C 13.0 °C 1021.2 hPa SW 3.2 km/h 14.5 km/h 35 % 0.0 mm
17:17 30.1 °C 13.4 °C 1021.2 hPa ENE 3.2 km/h 12.9 km/h 36 % 0.0 mm
17:22 30.4 °C 13.2 °C 1021.2 hPa ENE 3.2 km/h 9.7 km/h 35 % 0.0 mm
17:27 30.1 °C 13.4 °C 1021.2 hPa East 4.8 km/h 9.7 km/h 36 % 0.0 mm
17:32 30.1 °C 13.4 °C 1021.2 hPa ENE 4.8 km/h 12.9 km/h 36 % 0.0 mm
17:37 29.9 °C 12.8 °C 1021.2 hPa NNW 1.6 km/h 12.9 km/h 35 % 0.0 mm
17:42 29.9 °C 12.8 °C 1021.2 hPa North 3.2 km/h 11.3 km/h 35 % 0.0 mm
17:47 30.2 °C 13.0 °C 1021.2 hPa West 3.2 km/h 9.7 km/h 35 % 0.0 mm
17:52 30.2 °C 13.0 °C 1020.9 hPa SSW 1.6 km/h 8.0 km/h 35 % 0.0 mm
17:57 30.7 °C 13.0 °C 1020.9 hPa Calm   6.4 km/h 34 % 0.0 mm
18:02 30.8 °C 13.1 °C 1020.9 hPa Calm   8.0 km/h 34 % 0.0 mm
18:12 31.4 °C 13.2 °C 1020.9 hPa Calm   4.8 km/h 33 % 0.0 mm
18:17 31.9 °C 13.6 °C 1020.9 hPa NNE 6.4 km/h 6.4 km/h 33 % 0.0 mm
18:22 31.3 °C 14.0 °C 1020.9 hPa ESE 3.2 km/h 4.8 km/h 35 % 0.0 mm
18:27 30.7 °C 13.5 °C 1020.9 hPa ENE 8.0 km/h 9.7 km/h 35 % 0.0 mm
18:32 30.9 °C 13.7 °C 1020.9 hPa SE 3.2 km/h 9.7 km/h 35 % 0.0 mm
18:42 30.9 °C 13.2 °C 1020.9 hPa Calm   8.0 km/h 34 % 0.0 mm
18:47 30.6 °C 13.4 °C 1020.9 hPa NE 3.2 km/h 8.0 km/h 35 % 0.0 mm
18:52 30.3 °C 13.1 °C 1020.5 hPa ENE 3.2 km/h 11.3 km/h 35 % 0.0 mm
18:57 30.4 °C 13.2 °C 1020.5 hPa SW 1.6 km/h 11.3 km/h 35 % 0.0 mm
19:02 30.9 °C 13.2 °C 1020.9 hPa Calm   9.7 km/h 34 % 0.0 mm
19:12 30.9 °C 13.2 °C 1020.5 hPa ENE 3.2 km/h 4.8 km/h 34 % 0.0 mm
19:17 30.9 °C 13.2 °C 1020.5 hPa Calm   4.8 km/h 34 % 0.0 mm
19:22 31.0 °C 13.3 °C 1020.5 hPa Calm   4.8 km/h 34 % 0.0 mm
19:32 30.3 °C 13.1 °C 1020.5 hPa ENE 4.8 km/h 4.8 km/h 35 % 0.0 mm
19:37 30.0 °C 13.3 °C 1020.5 hPa NE 6.4 km/h 8.0 km/h 36 % 0.0 mm
19:42 29.8 °C 13.1 °C 1020.5 hPa ENE 8.0 km/h 8.0 km/h 36 % 0.0 mm
19:47 29.8 °C 14.0 °C 1020.9 hPa NE 1.6 km/h 12.9 km/h 38 % 0.0 mm
19:52 29.8 °C 14.0 °C 1020.9 hPa ENE 6.4 km/h 12.9 km/h 38 % 0.0 mm
19:57 29.7 °C 13.9 °C 1020.9 hPa ENE 4.8 km/h 8.0 km/h 38 % 0.0 mm
20:02 29.6 °C 14.2 °C 1020.9 hPa NE 6.4 km/h 8.0 km/h 39 % 0.0 mm
20:07 29.4 °C 13.6 °C 1020.9 hPa ENE 4.8 km/h 8.0 km/h 38 % 0.0 mm
20:17 29.2 °C 14.2 °C 1020.5 hPa ENE 3.2 km/h 6.4 km/h 40 % 0.0 mm
20:22 29.1 °C 14.1 °C 1020.5 hPa ENE 3.2 km/h 6.4 km/h 40 % 0.0 mm
20:32 28.7 °C 14.1 °C 1020.9 hPa ENE 1.6 km/h 6.4 km/h 41 % 0.0 mm
20:52 27.7 °C 14.3 °C 1020.9 hPa NE 3.2 km/h 8.0 km/h 44 % 0.0 mm
21:02 27.1 °C 14.5 °C 1020.9 hPa NNE 3.2 km/h 6.4 km/h 46 % 0.0 mm
21:12 26.4 °C 14.5 °C 1020.9 hPa NNW 3.2 km/h 4.8 km/h 48 % 0.0 mm
21:17 25.9 °C 14.4 °C 1020.9 hPa North 1.6 km/h 4.8 km/h 49 % 0.0 mm
21:22 25.4 °C 14.2 °C 1020.9 hPa Calm   4.8 km/h 50 % 0.0 mm
21:32 25.0 °C 14.2 °C 1020.9 hPa North 1.6 km/h 4.8 km/h 51 % 0.0 mm
21:42 24.8 °C 14.3 °C 1021.2 hPa NNW 1.6 km/h 4.8 km/h 52 % 0.0 mm
21:47 24.8 °C 14.3 °C 1021.2 hPa NNW 1.6 km/h 4.8 km/h 52 % 0.0 mm
21:52 24.6 °C 14.1 °C 1021.2 hPa Calm   4.8 km/h 52 % 0.0 mm
21:57 24.3 °C 14.4 °C 1021.2 hPa Calm   4.8 km/h 54 % 0.0 mm
22:07 24.2 °C 14.3 °C 1021.6 hPa Calm   6.4 km/h 54 % 0.0 mm
22:12 24.1 °C 14.5 °C 1021.6 hPa NNW 1.6 km/h 6.4 km/h 55 % 0.0 mm
22:17 23.9 °C 14.6 °C 1021.6 hPa NW 1.6 km/h 6.4 km/h 56 % 0.0 mm
22:22 23.8 °C 14.5 °C 1021.6 hPa NW 3.2 km/h 3.2 km/h 56 % 0.0 mm
22:32 23.7 °C 14.7 °C 1021.6 hPa North 3.2 km/h 9.7 km/h 57 % 0.0 mm
22:42 23.3 °C 14.6 °C 1021.6 hPa NNW 1.6 km/h 9.7 km/h 58 % 0.0 mm
22:47 23.3 °C 14.6 °C 1021.6 hPa NNW 1.6 km/h 4.8 km/h 58 % 0.0 mm
22:52 23.1 °C 14.6 °C 1021.6 hPa NNE 1.6 km/h 4.8 km/h 59 % 0.0 mm
22:57 22.8 °C 14.4 °C 1021.6 hPa North 1.6 km/h 4.8 km/h 59 % 0.0 mm
23:02 22.8 °C 14.4 °C 1021.6 hPa North 3.2 km/h 4.8 km/h 59 % 0.0 mm
23:12 22.7 °C 14.5 °C 1021.6 hPa North 1.6 km/h 4.8 km/h 60 % 0.0 mm
23:17 22.6 °C 14.4 °C 1021.6 hPa NNW 1.6 km/h 4.8 km/h 60 % 0.0 mm
23:22 22.4 °C 14.3 °C 1021.6 hPa NNE 1.6 km/h 4.8 km/h 60 % 0.0 mm
23:32 22.2 °C 14.3 °C 1021.6 hPa NNE 3.2 km/h 4.8 km/h 61 % 0.0 mm
23:42 22.2 °C 14.3 °C 1021.6 hPa NNW 3.2 km/h 6.4 km/h 61 % 0.0 mm
23:47 22.2 °C 14.1 °C 1021.6 hPa NNE 1.6 km/h 6.4 km/h 60 % 0.0 mm
23:52 22.2 °C 14.1 °C 1021.6 hPa NNW 1.6 km/h 6.4 km/h 60 % 0.0 mm
23:57 22.1 °C 14.2 °C 1021.6 hPa North 4.8 km/h 6.4 km/h 61 % 0.0 mm
Meteo18
Compliments of Weather Underground - 4 mb

Script developed by  Jim McMurry - jmcmurry@mwt.net Adapted for the template by  Wim van der Kuil - Leuven-Template.eu

You find our weather info also at:

European Weather Network

Weather Underground

Equipment we use:

Weather-station
Davis Vue

Weather-program
Meteohub

Weather-server
Raspberry PI 2 B+

Provider
1 and 1

Davis Vue

Meteohub

Raspberry PI 2 B+

1 and 1